Friday, January 18, 2019, 11:19 PM EST
Back to Local

KBGM, Binghamton Regional Airport

Location: Johnson City, NY, United States Lat: 42.2
Local Time: 11:19 PM EST ( 4:19 GMT) Lon: -75.983
Time Zone: US/Eastern Elev: 1637 ft

Show me the last for .
Show Coded

Time T Td Feel RH Dir Speed Gust Alt SLP Vis Weather Sky Remarks
2019-01-18 23:10 26 20 16 77 340° 12 - 30.09 - 10 FEW023 OVC030 None
2019-01-18 22:53 26 20 17 77 330° 9 - 30.09 30.15 10 BKN022 OVC028 None
2019-01-18 22:41 26 19 17 74 330° 9 - 30.08 - 10 BKN022 BKN030 OVC038 None
2019-01-18 21:53 27 18 20 68 300° 6 - 30.10 30.16 10 FEW024 OVC040 None
2019-01-18 20:53 27 18 19 68 290° 7 - 30.09 30.15 10 OVC042 None
2019-01-18 19:53 27 19 19 71 280° 7 - 30.07 30.14 10 OVC041 None
2019-01-18 19:10 27 20 19 74 310° 7 - 30.07 - 10 SCT025 SCT031 OVC040 None
2019-01-18 18:53 28 21 14 74 310° 14 22 30.07 30.14 10 OVC026 6-hr Precip Total (7pm): 0.00"
6-hr Min Temp (7pm): 28.0°F
6-hr Max Temp (7pm): 30.9°F
2019-01-18 17:53 28 22 20 77 310° 8 - 30.05 30.11 10 OVC028 1-hr Precip Total: Trace
2019-01-18 17:12 28 23 18 81 310° 12 - 30.02 - 9 SCT014 OVC026 1-hr Precip Total: Trace
2019-01-18 16:53 28 25 21 88 340° 7 - 30.01 30.08 6 -SN BR BKN012 OVC021 1-hr Precip Total: Trace
2019-01-18 16:19 29 25 20 84 330° 10 - 30.01 - 5 BR BKN010 OVC015 None
2019-01-18 16:11 29 25 22 84 330° 7 - 30.00 - 5 BR BKN008 OVC013 None
2019-01-18 15:53 29 26 20 88 330° 9 - 29.99 30.05 6 BR OVC010 None
2019-01-18 15:44 30 26 21 84 320° 10 - 29.98 - 6 BR BKN010 OVC015 None
2019-01-18 14:53 30 25 21 81 250° 10 - 29.97 30.04 8 OVC018 None
2019-01-18 13:53 30 25 21 81 260° 10 - 29.94 30.01 9 OVC017 None
2019-01-18 12:53 29 24 22 81 220° 7 - 29.94 30.00 9 OVC010 6-hr Precip Total (1pm): 0.07"
6-hr Min Temp (1pm): 21.9°F
6-hr Max Temp (1pm): 28.9°F
2019-01-18 12:38 29 24 20 81 220° 9 - 29.94 - 10 BKN011 OVC050 None
2019-01-18 11:53 27 24 19 88 220° 7 - 29.95 30.02 8 BKN008 OVC055 1-hr Precip Total: Trace
2019-01-18 11:35 26 23 17 87 220° 9 - 29.96 - 9 BKN008 OVC040 1-hr Precip Total: Trace
2019-01-18 11:20 26 23 18 87 220° 8 - 29.97 - 5 -SN BR SCT007 OVC042 1-hr Precip Total: Trace
2019-01-18 11:06 26 23 18 87 210° 8 - 29.97 - 2 SCT007 BKN032 OVC042 None
2019-01-18 10:53 25 23 16 92 220° 9 - 29.98 30.04 2 FEW007 BKN022 OVC044 1-hr Precip Total: Trace
2019-01-18 10:40 25 22 18 87 220° 6 - 29.98 - 1 FEW006 BKN021 OVC048 1-hr Precip Total: Trace
2019-01-18 10:24 25 23 19 92 200° 5 - 29.98 - 1 -SN BR FEW007 BKN031 OVC048 1-hr Precip Total: Trace
2019-01-18 10:15 25 23 18 92 190° 6 - 29.97 - 1 -SN BR SCT024 BKN034 OVC048 1-hr Precip Total: Trace
2019-01-18 10:01 24 22 16 91 200° 7 - 29.97 - 1 -SN BR BKN022 BKN027 OVC032 1-hr Precip Total: Trace
2019-01-18 09:53 24 22 17 91 200° 6 - 29.97 30.04 0 -SN BR BKN021 OVC027 1-hr Precip Total: 0.03"
6-hr Precip Total (10am): 0.07"
2019-01-18 09:30 24 22 20 91 210° 3 - 29.97 - 0 SN FZFG BKN017 OVC024 1-hr Precip Total: 0.02"
2019-01-18 09:17 24 22 15 91 200° 8 - 29.97 - 1 -SN BR SCT018 OVC024 1-hr Precip Total: 0.01"
2019-01-18 08:53 24 22 16 91 180° 7 - 29.96 30.03 0 -SN BR OVC022 1-hr Precip Total: 0.03"
2019-01-18 08:50 25 21 18 85 200° 6 - 29.96 - 1 -SN BR OVC022 1-hr Precip Total: 0.03"
2019-01-18 08:43 23 21 16 91 190° 6 - 29.96 - 0 -SN BR OVC022 1-hr Precip Total: 0.02"
2019-01-18 08:07 23 21 15 91 190° 7 - 29.95 - 1 -SN BR OVC022 1-hr Precip Total: 0.01"
2019-01-18 07:53 23 21 14 91 190° 8 - 29.95 30.02 0 -SN BR OVC022 1-hr Precip Total: 0.01"
2019-01-18 07:38 23 20 15 87 200° 7 - 29.95 - 1 -SN BR OVC023 1-hr Precip Total: 0.01"
2019-01-18 07:19 23 20 17 87 180° 5 - 29.95 - 2 -SN BR BKN025 OVC038 1-hr Precip Total: Trace
2019-01-18 06:53 22 20 14 91 170° 6 - 29.94 30.01 2 -SN BR FEW028 BKN040 OVC055 1-hr Precip Total: 0.01"
6-hr Precip Total (7am): 0.02"
24-hr Precip Total (7am): 0.04"
6-hr Min Temp (7am): 19.9°F
6-hr Max Temp (7am): 21.9°F
2019-01-18 06:11 22 19 14 88 160° 6 - 29.94 - 2 -SN BR BKN033 OVC042 1-hr Precip Total: Trace
2019-01-18 05:53 22 19 14 88 160° 6 - 29.94 30.01 4 -SN BR OVC033 1-hr Precip Total: Trace
2019-01-18 04:53 21 18 12 87 170° 7 - 29.95 30.02 9 OVC037 1-hr Precip Total: Trace
2019-01-18 03:53 20 17 10 88 170° 8 - 29.96 30.04 4 -SN BR OVC043 1-hr Precip Total: 0.01"
6-hr Precip Total (4am): 0.01"
2019-01-18 03:38 20 17 9 88 170° 10 - 29.97 - 3 -SN BR BKN044 OVC050 1-hr Precip Total: Trace
2019-01-18 03:18 20 17 11 88 170° 7 - 29.99 - 2 -SN BR SCT024 OVC042 1-hr Precip Total: Trace
2019-01-18 02:53 20 18 12 91 160° 6 - 30.00 30.08 4 -SN BR OVC024 1-hr Precip Total: Trace
2019-01-18 02:17 20 17 10 88 160° 8 - 30.01 - 10 SCT013 OVC020 1-hr Precip Total: Trace
2019-01-18 01:53 20 17 10 88 160° 8 - 30.01 30.09 6 -SN BR OVC013 1-hr Precip Total: Trace
2019-01-18 01:19 20 16 11 84 160° 7 - 30.02 - 10 OVC014 None
2019-01-18 00:53 20 16 11 84 160° 7 - 30.03 30.11 10 OVC018 1-hr Precip Total: Trace
6-hr Precip Total (1am): 0.02"
6-hr Min Temp (1am): 19.0°F
6-hr Max Temp (1am): 24.1°F
2019-01-17 23:53 19 17 10 91 170° 7 - 30.05 30.14 4 -SN BR OVC028 1-hr Precip Total: 0.01"
24-hr Min Temp (12am): 9.0°F
24-hr Max Temp (12am): 24.1°F
2019-01-17 23:45 19 17 10 91 170° 7 - 30.05 - 5 -SN BR OVC028 1-hr Precip Total: 0.01"
2019-01-17 23:33 19 17 9 91 160° 8 - 30.06 - 4 -SN BR OVC031 1-hr Precip Total: 0.01"

Support USWX by starting your Amazon purchase here.